Time;durP1;ratioP1;P1;durP2;ratioP2;P2;SDS_P1;SDS_P2;PMS_P1;PMS_P2;Temp;Humidity;BMP_temperature;BMP_pressure;BME280_temperature;BME280_humidity;BME280_pressure;Samples;Min_cycle;Max_cycle;Signal;HPM_P1;HPM_P2
2023/04/13 00:00:45;;;;;;;0.63;0.22;;;;;;;;;;4933249;29;20048;-60
2023/04/13 00:03:15;;;;;;;0.35;0.30;;;;;;;;;;4933083;29;20062;-60
2023/04/13 00:05:46;;;;;;;0.55;0.30;;;;;;;;;;4927212;29;20044;-60
2023/04/13 00:08:15;;;;;;;0.25;0.25;;;;;;;;;;4925944;29;20111;-61
2023/04/13 00:10:44;;;;;;;0.20;0.20;;;;;;;;;;4932780;29;20055;-62
2023/04/13 00:13:13;;;;;;;0.10;0.10;;;;;;;;;;4932729;29;20047;-61
2023/04/13 00:15:43;;;;;;;1.02;0.13;;;;;;;;;;4919007;29;20489;-61
2023/04/13 00:18:12;;;;;;;0.32;0.32;;;;;;;;;;4932660;29;20048;-60
2023/04/13 00:20:42;;;;;;;0.10;0.10;;;;;;;;;;4932882;29;20078;-61
2023/04/13 00:23:11;;;;;;;0.10;0.10;;;;;;;;;;4932474;29;20051;-60
2023/04/13 00:25:39;;;;;;;0.65;0.20;;;;;;;;;;4932068;28;20098;-61
2023/04/13 00:28:08;;;;;;;0.10;0.10;;;;;;;;;;4932273;29;20178;-61
2023/04/13 00:30:36;;;;;;;0.10;0.10;;;;;;;;;;4932268;29;20111;-60
2023/04/13 00:33:05;;;;;;;0.10;0.10;;;;;;;;;;4932468;29;20415;-60
2023/04/13 00:35:34;;;;;;;0.10;0.10;;;;;;;;;;4931730;29;20051;-60
2023/04/13 00:38:03;;;;;;;0.20;0.20;;;;;;;;;;4931989;29;20055;-60
2023/04/13 00:40:31;;;;;;;17.90;0.32;;;;;;;;;;4928202;29;20058;-59
2023/04/13 00:43:00;;;;;;;0.47;0.20;;;;;;;;;;4929878;29;20413;-60
2023/04/13 00:45:30;;;;;;;0.10;0.10;;;;;;;;;;4931951;28;20082;-60
2023/04/13 00:47:58;;;;;;;0.52;0.20;;;;;;;;;;4932231;29;20095;-60
2023/04/13 00:50:27;;;;;;;0.10;0.10;;;;;;;;;;4932283;29;20090;-59
2023/04/13 00:52:57;;;;;;;0.10;0.10;;;;;;;;;;4931733;29;20054;-60
2023/04/13 00:55:26;;;;;;;0.10;0.10;;;;;;;;;;4931863;28;20169;-60
2023/04/13 00:57:55;;;;;;;0.10;0.10;;;;;;;;;;4932124;29;20062;-59
2023/04/13 01:03:00;;;;;;;0.38;0.28;;;;;;;;;;4859480;29;20068;-59
2023/04/13 01:05:30;;;;;;;0.40;0.40;;;;;;;;;;4860987;29;20149;-62
2023/04/13 01:08:07;;;;;;;0.10;0.10;;;;;;;;;;4860996;29;20057;-59
2023/04/13 01:10:40;;;;;;;0.10;0.10;;;;;;;;;;4860823;29;20065;-59
2023/04/13 01:13:14;;;;;;;0.10;0.10;;;;;;;;;;4860505;29;20057;-59
2023/04/13 01:15:46;;;;;;;0.10;0.10;;;;;;;;;;4861308;29;20128;-60
2023/04/13 01:18:15;;;;;;;0.10;0.10;;;;;;;;;;4860497;29;20418;-61
2023/04/13 01:20:45;;;;;;;0.10;0.10;;;;;;;;;;4860965;29;20093;-60
2023/04/13 01:23:24;;;;;;;0.03;0.03;;;;;;;;;;4860440;29;20543;-61
2023/04/13 01:25:56;;;;;;;0.10;0.10;;;;;;;;;;4861141;29;20129;-61
2023/04/13 01:28:26;;;;;;;0.10;0.10;;;;;;;;;;4861041;29;20136;-61
2023/04/13 01:30:56;;;;;;;0.20;0.20;;;;;;;;;;4861239;29;20053;-64
2023/04/13 01:33:25;;;;;;;0.15;0.15;;;;;;;;;;4860274;29;20461;-61
2023/04/13 01:35:54;;;;;;;4.15;0.52;;;;;;;;;;4861592;29;20136;-60
2023/04/13 01:38:24;;;;;;;0.10;0.10;;;;;;;;;;4877268;29;20053;-61
2023/04/13 01:40:52;;;;;;;0.28;0.28;;;;;;;;;;4874999;29;20053;-61
2023/04/13 01:43:21;;;;;;;0.10;0.10;;;;;;;;;;4874743;29;20079;-61
2023/04/13 01:45:54;;;;;;;0.00;0.00;;;;;;;;;;4875095;29;20071;-60
2023/04/13 01:48:30;;;;;;;0.05;0.05;;;;;;;;;;4896021;29;20569;-60
2023/04/13 01:51:02;;;;;;;2.83;0.17;;;;;;;;;;4882527;29;20503;-63
2023/04/13 01:53:31;;;;;;;0.10;0.10;;;;;;;;;;4879084;29;20056;-60
2023/04/13 01:56:03;;;;;;;0.10;0.10;;;;;;;;;;4891496;29;20469;-60
2023/04/13 01:58:33;;;;;;;0.10;0.10;;;;;;;;;;4878802;29;20109;-60
2023/04/13 02:01:06;;;;;;;0.22;0.22;;;;;;;;;;4880858;29;20049;-60
2023/04/13 02:03:37;;;;;;;0.10;0.10;;;;;;;;;;4885752;29;20093;-67
2023/04/13 02:06:06;;;;;;;0.17;0.17;;;;;;;;;;4871237;29;20129;-61
2023/04/13 02:08:35;;;;;;;0.10;0.10;;;;;;;;;;4873610;29;20530;-61
2023/04/13 02:11:04;;;;;;;0.20;0.20;;;;;;;;;;4881004;29;20131;-62
2023/04/13 02:13:33;;;;;;;0.10;0.10;;;;;;;;;;4882390;29;20072;-60
2023/04/13 02:16:02;;;;;;;0.10;0.10;;;;;;;;;;4886603;29;20052;-62
2023/04/13 02:18:32;;;;;;;0.08;0.08;;;;;;;;;;4881827;29;20067;-66
2023/04/13 02:21:02;;;;;;;0.10;0.10;;;;;;;;;;4880426;29;20143;-61
2023/04/13 02:23:32;;;;;;;0.10;0.10;;;;;;;;;;4884107;29;20076;-62
2023/04/13 02:26:01;;;;;;;0.25;0.20;;;;;;;;;;4885996;29;20057;-63
2023/04/13 02:28:30;;;;;;;0.10;0.10;;;;;;;;;;4882898;29;20059;-60
2023/04/13 02:30:59;;;;;;;0.20;0.10;;;;;;;;;;4896889;29;20143;-61
2023/04/13 02:33:30;;;;;;;0.00;0.00;;;;;;;;;;4878009;29;20681;-61
2023/04/13 02:35:58;;;;;;;0.10;0.10;;;;;;;;;;4890535;29;20053;-69
2023/04/13 02:38:28;;;;;;;0.10;0.10;;;;;;;;;;4884551;29;20060;-61
2023/04/13 02:40:57;;;;;;;0.20;0.20;;;;;;;;;;4876504;29;20105;-62
2023/04/13 02:43:32;;;;;;;0.20;0.20;;;;;;;;;;4877931;29;20063;-62
2023/04/13 02:46:00;;;;;;;0.10;0.10;;;;;;;;;;4881988;29;20069;-60
2023/04/13 02:48:30;;;;;;;0.10;0.10;;;;;;;;;;4887649;29;20049;-62
2023/04/13 02:50:59;;;;;;;0.10;0.10;;;;;;;;;;4881720;29;20049;-61
2023/04/13 02:53:27;;;;;;;0.10;0.10;;;;;;;;;;4889415;29;20053;-60
2023/04/13 02:55:55;;;;;;;0.65;0.25;;;;;;;;;;4877380;29;20053;-61
2023/04/13 02:58:24;;;;;;;0.10;0.10;;;;;;;;;;4877382;29;20060;-61
2023/04/13 03:00:52;;;;;;;0.10;0.10;;;;;;;;;;4877156;29;20140;-63
2023/04/13 03:03:21;;;;;;;0.10;0.10;;;;;;;;;;4885427;29;20554;-60
2023/04/13 03:05:51;;;;;;;0.10;0.10;;;;;;;;;;4871759;29;20133;-61
2023/04/13 03:08:20;;;;;;;0.08;0.08;;;;;;;;;;4871006;29;20136;-61
2023/04/13 03:10:48;;;;;;;0.00;0.00;;;;;;;;;;4877199;29;20052;-62
2023/04/13 03:13:16;;;;;;;0.10;0.10;;;;;;;;;;4889933;29;20160;-63
2023/04/13 03:15:45;;;;;;;0.10;0.10;;;;;;;;;;4876910;29;20055;-63
2023/04/13 03:18:15;;;;;;;0.10;0.10;;;;;;;;;;4878165;29;20052;-62
2023/04/13 03:20:44;;;;;;;0.10;0.10;;;;;;;;;;4888318;29;20116;-60
2023/04/13 03:23:14;;;;;;;0.10;0.10;;;;;;;;;;4880899;29;20483;-63
2023/04/13 03:25:43;;;;;;;0.10;0.10;;;;;;;;;;4876791;29;20052;-60
2023/04/13 03:28:11;;;;;;;0.10;0.10;;;;;;;;;;4889404;29;20142;-61
2023/04/13 03:30:39;;;;;;;0.60;0.22;;;;;;;;;;4885722;29;20502;-61
2023/04/13 03:33:08;;;;;;;0.20;0.20;;;;;;;;;;4879912;29;20053;-62
2023/04/13 03:35:36;;;;;;;0.10;0.10;;;;;;;;;;4876406;29;20181;-61
2023/04/13 03:38:04;;;;;;;0.05;0.05;;;;;;;;;;4876839;29;20061;-61
2023/04/13 03:40:34;;;;;;;0.38;0.20;;;;;;;;;;4872348;29;20053;-60
2023/04/13 03:43:03;;;;;;;0.20;0.20;;;;;;;;;;4887245;29;20055;-59
2023/04/13 03:45:31;;;;;;;0.10;0.10;;;;;;;;;;4876071;29;20592;-61
2023/04/13 03:47:59;;;;;;;10.63;0.40;;;;;;;;;;4876769;29;20426;-60
2023/04/13 03:50:28;;;;;;;0.10;0.10;;;;;;;;;;4876896;29;20057;-61
2023/04/13 03:52:56;;;;;;;0.10;0.10;;;;;;;;;;4887162;29;20140;-60
2023/04/13 03:55:25;;;;;;;0.10;0.10;;;;;;;;;;4876158;29;20517;-61
2023/04/13 03:57:55;;;;;;;0.10;0.10;;;;;;;;;;4876415;29;20597;-60
2023/04/13 04:00:24;;;;;;;0.10;0.10;;;;;;;;;;4876280;29;20136;-63
2023/04/13 04:02:52;;;;;;;0.10;0.10;;;;;;;;;;4891071;29;20143;-59
2023/04/13 04:05:21;;;;;;;0.10;0.10;;;;;;;;;;4880110;29;20144;-61
2023/04/13 04:07:49;;;;;;;0.73;0.73;;;;;;;;;;4865222;29;20511;-60
2023/04/13 04:10:18;;;;;;;0.10;0.10;;;;;;;;;;4877897;29;20575;-61
2023/04/13 04:12:46;;;;;;;0.10;0.10;;;;;;;;;;4885524;29;20048;-64
2023/04/13 04:15:16;;;;;;;0.08;0.08;;;;;;;;;;4876240;29;20128;-63
2023/04/13 04:17:44;;;;;;;0.10;0.10;;;;;;;;;;4875876;29;20049;-63
2023/04/13 04:20:13;;;;;;;0.38;0.38;;;;;;;;;;4876009;29;20665;-59
2023/04/13 04:22:43;;;;;;;0.13;0.13;;;;;;;;;;4879769;29;20156;-60
2023/04/13 04:25:16;;;;;;;0.10;0.10;;;;;;;;;;4876159;29;20064;-60
2023/04/13 04:27:45;;;;;;;0.10;0.10;;;;;;;;;;4875473;29;20064;-63
2023/04/13 04:30:14;;;;;;;0.10;0.10;;;;;;;;;;4875906;29;20087;-60
2023/04/13 04:32:43;;;;;;;0.10;0.10;;;;;;;;;;4888378;29;20060;-62
2023/04/13 04:35:13;;;;;;;0.10;0.10;;;;;;;;;;4875910;29;20049;-60
2023/04/13 04:37:41;;;;;;;0.10;0.10;;;;;;;;;;4887909;29;20139;-59
2023/04/13 04:40:10;;;;;;;0.13;0.13;;;;;;;;;;4883705;29;20052;-60
2023/04/13 04:42:40;;;;;;;0.10;0.10;;;;;;;;;;4882021;29;20052;-60
2023/04/13 04:45:09;;;;;;;0.10;0.10;;;;;;;;;;4875760;29;20045;-59
2023/04/13 04:47:40;;;;;;;0.03;0.03;;;;;;;;;;4877913;29;20083;-60
2023/04/13 04:50:11;;;;;;;0.80;0.28;;;;;;;;;;4884655;29;20057;-61
2023/04/13 04:52:40;;;;;;;8.18;0.43;;;;;;;;;;4884275;29;20049;-59
2023/04/13 04:55:09;;;;;;;0.20;0.20;;;;;;;;;;4877775;29;20044;-60
2023/04/13 04:57:37;;;;;;;0.90;0.77;;;;;;;;;;4875387;29;20132;-59
2023/04/13 05:00:09;;;;;;;0.20;0.20;;;;;;;;;;4886473;29;20066;-60
2023/04/13 05:02:42;;;;;;;0.10;0.10;;;;;;;;;;4881908;29;20426;-60
2023/04/13 05:05:12;;;;;;;0.05;0.05;;;;;;;;;;4875750;29;20060;-60
2023/04/13 05:07:41;;;;;;;0.20;0.20;;;;;;;;;;4864278;29;20045;-62
2023/04/13 05:10:10;;;;;;;0.10;0.10;;;;;;;;;;4875435;29;20057;-61
2023/04/13 05:12:38;;;;;;;0.10;0.10;;;;;;;;;;4879659;29;20052;-60
2023/04/13 05:15:07;;;;;;;0.10;0.10;;;;;;;;;;4876880;29;20045;-61
2023/04/13 05:17:36;;;;;;;0.10;0.10;;;;;;;;;;4885253;29;20128;-64
2023/04/13 05:20:05;;;;;;;0.10;0.10;;;;;;;;;;4876973;29;20498;-60
2023/04/13 05:22:36;;;;;;;0.17;0.17;;;;;;;;;;4886757;29;20061;-62
2023/04/13 05:25:05;;;;;;;0.10;0.10;;;;;;;;;;4881914;29;20045;-62
2023/04/13 05:27:33;;;;;;;0.10;0.10;;;;;;;;;;4880857;29;20049;-60
2023/04/13 05:30:02;;;;;;;0.30;0.30;;;;;;;;;;4881446;29;20247;-60
2023/04/13 05:32:30;;;;;;;0.15;0.15;;;;;;;;;;4892096;29;20045;-61
2023/04/13 05:34:59;;;;;;;0.20;0.20;;;;;;;;;;4882827;29;20056;-59
2023/04/13 05:37:27;;;;;;;0.10;0.10;;;;;;;;;;4880863;29;20135;-60
2023/04/13 05:39:57;;;;;;;0.10;0.10;;;;;;;;;;4881657;29;20411;-60
2023/04/13 05:42:25;;;;;;;0.10;0.10;;;;;;;;;;4884340;29;20061;-65
2023/04/13 05:44:54;;;;;;;0.20;0.20;;;;;;;;;;4881403;29;20049;-61
2023/04/13 05:47:23;;;;;;;0.17;0.17;;;;;;;;;;4893231;29;20053;-61
2023/04/13 05:49:52;;;;;;;0.10;0.10;;;;;;;;;;4881424;29;20411;-61
2023/04/13 05:52:21;;;;;;;0.35;0.28;;;;;;;;;;4888439;29;20156;-60
2023/04/13 05:54:50;;;;;;;0.10;0.10;;;;;;;;;;4881413;29;20480;-60
2023/04/13 05:57:20;;;;;;;0.10;0.10;;;;;;;;;;4880935;29;20135;-60
2023/04/13 05:59:49;;;;;;;0.20;0.20;;;;;;;;;;4890099;29;20508;-60
2023/04/13 06:02:17;;;;;;;0.10;0.10;;;;;;;;;;4889228;29;20061;-63
2023/04/13 06:04:46;;;;;;;0.10;0.10;;;;;;;;;;4881626;29;20056;-61
2023/04/13 06:07:15;;;;;;;0.40;0.40;;;;;;;;;;4871802;29;20132;-59
2023/04/13 06:09:43;;;;;;;1.27;0.85;;;;;;;;;;4899616;29;20052;-63
2023/04/13 06:12:12;;;;;;;0.20;0.20;;;;;;;;;;4885719;29;20045;-59
2023/04/13 06:14:43;;;;;;;7.45;0.63;;;;;;;;;;4880938;29;20049;-60
2023/04/13 06:17:11;;;;;;;0.30;0.30;;;;;;;;;;4880743;29;20072;-59
2023/04/13 06:19:39;;;;;;;0.30;0.15;;;;;;;;;;4893687;29;20048;-60
2023/04/13 06:22:08;;;;;;;0.43;0.10;;;;;;;;;;4869864;29;20396;-59
2023/04/13 06:24:37;;;;;;;0.10;0.10;;;;;;;;;;4881351;29;20041;-60
2023/04/13 06:27:05;;;;;;;2.17;0.40;;;;;;;;;;4887831;29;20060;-59
2023/04/13 06:29:34;;;;;;;0.20;0.20;;;;;;;;;;4885674;29;20145;-62
2023/04/13 06:32:06;;;;;;;0.30;0.30;;;;;;;;;;4887363;29;20040;-62
2023/04/13 06:34:34;;;;;;;0.10;0.10;;;;;;;;;;4882576;29;20061;-62
2023/04/13 06:37:03;;;;;;;0.22;0.22;;;;;;;;;;4877568;29;20678;-60
2023/04/13 06:39:36;;;;;;;0.10;0.10;;;;;;;;;;4878214;29;20080;-60
2023/04/13 06:42:05;;;;;;;0.10;0.10;;;;;;;;;;4881997;29;20053;-66
2023/04/13 06:44:33;;;;;;;0.20;0.20;;;;;;;;;;4892160;29;20072;-60
2023/04/13 06:47:02;;;;;;;0.55;0.28;;;;;;;;;;4888302;29;20528;-60
2023/04/13 06:49:34;;;;;;;0.10;0.10;;;;;;;;;;4878996;29;20570;-60
2023/04/13 06:52:02;;;;;;;0.40;0.22;;;;;;;;;;4889254;29;20053;-64
2023/04/13 06:54:31;;;;;;;0.10;0.10;;;;;;;;;;4878256;29;20126;-60
2023/04/13 06:57:00;;;;;;;1.30;0.63;;;;;;;;;;4889521;29;20190;-59
2023/04/13 06:59:29;;;;;;;5.35;2.22;;;;;;;;;;4879351;29;20427;-61
2023/04/13 07:01:57;;;;;;;0.20;0.20;;;;;;;;;;4882151;29;20502;-65
2023/04/13 07:04:26;;;;;;;7.68;1.65;;;;;;;;;;4877528;29;20160;-61
2023/04/13 07:07:01;;;;;;;1.00;0.45;;;;;;;;;;4864676;29;20054;-59
2023/04/13 07:09:29;;;;;;;0.20;0.20;;;;;;;;;;4885712;29;20143;-60
2023/04/13 07:11:58;;;;;;;0.43;0.30;;;;;;;;;;4878926;29;20092;-60
2023/04/13 07:14:26;;;;;;;6.13;0.57;;;;;;;;;;4877011;29;20522;-60
2023/04/13 07:16:54;;;;;;;0.10;0.10;;;;;;;;;;4877016;29;20065;-60
2023/04/13 07:19:24;;;;;;;0.10;0.10;;;;;;;;;;4886840;29;20072;-60
2023/04/13 07:21:52;;;;;;;0.10;0.10;;;;;;;;;;4880606;29;20056;-62
2023/04/13 07:24:22;;;;;;;0.20;0.20;;;;;;;;;;4877345;29;20109;-60
2023/04/13 07:26:51;;;;;;;0.75;0.57;;;;;;;;;;4881163;29;20136;-62
2023/04/13 07:29:19;;;;;;;0.43;0.10;;;;;;;;;;4884736;29;20059;-60
2023/04/13 07:31:49;;;;;;;0.17;0.17;;;;;;;;;;4880159;29;20053;-61
2023/04/13 07:34:17;;;;;;;0.20;0.20;;;;;;;;;;4883852;29;20496;-61
2023/04/13 07:36:46;;;;;;;0.52;0.35;;;;;;;;;;4876524;29;20582;-60
2023/04/13 07:39:14;;;;;;;1.55;0.30;;;;;;;;;;4877137;29;20052;-60
2023/04/13 07:41:45;;;;;;;0.10;0.10;;;;;;;;;;4877222;29;20083;-65
2023/04/13 07:44:14;;;;;;;0.57;0.20;;;;;;;;;;4881565;29;20064;-60
2023/04/13 07:46:42;;;;;;;4.20;0.65;;;;;;;;;;4875700;29;20088;-62
2023/04/13 07:49:11;;;;;;;0.10;0.10;;;;;;;;;;4876674;29;20078;-60
2023/04/13 07:51:39;;;;;;;0.10;0.10;;;;;;;;;;4878711;29;20145;-67
2023/04/13 07:54:08;;;;;;;0.20;0.10;;;;;;;;;;4879919;29;20144;-62
2023/04/13 07:56:36;;;;;;;0.82;0.30;;;;;;;;;;4876047;29;20199;-60
2023/04/13 07:59:06;;;;;;;0.13;0.13;;;;;;;;;;4876515;29;20061;-62
2023/04/13 08:01:34;;;;;;;0.82;0.40;;;;;;;;;;4877443;29;20147;-60
2023/04/13 08:04:03;;;;;;;0.10;0.10;;;;;;;;;;4882579;29;20052;-61
2023/04/13 08:06:32;;;;;;;0.63;0.20;;;;;;;;;;4873574;29;20508;-65
2023/04/13 08:09:00;;;;;;;0.20;0.20;;;;;;;;;;4887633;29;20060;-64
2023/04/13 08:11:28;;;;;;;0.20;0.20;;;;;;;;;;4876814;29;20460;-61
2023/04/13 08:13:57;;;;;;;0.20;0.20;;;;;;;;;;4895122;29;20089;-61
2023/04/13 08:16:32;;;;;;;0.10;0.10;;;;;;;;;;4882350;29;20067;-62
2023/04/13 08:19:01;;;;;;;0.55;0.30;;;;;;;;;;4869949;29;20049;-63
2023/04/13 08:21:31;;;;;;;0.10;0.10;;;;;;;;;;4888895;29;20229;-60
2023/04/13 08:24:00;;;;;;;0.80;0.20;;;;;;;;;;4887220;29;20502;-60
2023/04/13 08:26:28;;;;;;;0.10;0.10;;;;;;;;;;4877422;29;20136;-62
2023/04/13 08:28:56;;;;;;;0.28;0.25;;;;;;;;;;4886179;29;20510;-61
2023/04/13 08:31:27;;;;;;;5.25;1.17;;;;;;;;;;4888019;29;20459;-60
2023/04/13 08:33:55;;;;;;;0.10;0.10;;;;;;;;;;4866758;29;20819;-63
2023/04/13 08:36:26;;;;;;;2.28;0.52;;;;;;;;;;4875446;29;20061;-62
2023/04/13 08:38:54;;;;;;;0.10;0.10;;;;;;;;;;4886129;29;20060;-60
2023/04/13 08:41:23;;;;;;;0.10;0.10;;;;;;;;;;4875672;29;20048;-60
2023/04/13 08:43:51;;;;;;;0.45;0.20;;;;;;;;;;4883740;29;20081;-60
2023/04/13 08:46:20;;;;;;;0.10;0.10;;;;;;;;;;4886316;29;20481;-60
2023/04/13 08:48:52;;;;;;;0.40;0.40;;;;;;;;;;4875939;29;20061;-63
2023/04/13 08:51:22;;;;;;;1.25;0.30;;;;;;;;;;4888111;29;20487;-62
2023/04/13 08:53:53;;;;;;;0.10;0.10;;;;;;;;;;4880953;29;20465;-60
2023/04/13 08:56:22;;;;;;;15.65;0.40;;;;;;;;;;4875593;29;20112;-60
2023/04/13 08:59:05;;;;;;;2.90;0.40;;;;;;;;;;4877854;29;20064;-61
2023/04/13 09:01:36;;;;;;;0.13;0.13;;;;;;;;;;4891901;29;20049;-70
2023/04/13 09:04:09;;;;;;;0.10;0.10;;;;;;;;;;4875586;29;20057;-62
2023/04/13 09:06:40;;;;;;;0.10;0.10;;;;;;;;;;4863823;29;20057;-60
2023/04/13 09:09:09;;;;;;;2.70;0.10;;;;;;;;;;4880440;29;20052;-62
2023/04/13 09:11:38;;;;;;;0.20;0.20;;;;;;;;;;4882472;29;20122;-63
2023/04/13 09:14:07;;;;;;;1.55;0.55;;;;;;;;;;4875402;29;20049;-60
2023/04/13 09:16:40;;;;;;;0.20;0.20;;;;;;;;;;4875316;29;20088;-61
2023/04/13 09:19:12;;;;;;;0.10;0.10;;;;;;;;;;4880048;29;20421;-62
2023/04/13 09:21:41;;;;;;;2.67;0.25;;;;;;;;;;4876407;29;20048;-60
2023/04/13 09:24:09;;;;;;;2.00;0.40;;;;;;;;;;4885461;29;20499;-62
2023/04/13 09:26:41;;;;;;;0.10;0.10;;;;;;;;;;4875075;29;20057;-59
2023/04/13 09:29:12;;;;;;;0.32;0.20;;;;;;;;;;4874942;29;20136;-61
2023/04/13 09:31:41;;;;;;;0.47;0.30;;;;;;;;;;4875311;29;20132;-61
2023/04/13 09:34:14;;;;;;;1.08;0.30;;;;;;;;;;4875215;29;20049;-61
2023/04/13 09:36:42;;;;;;;0.20;0.20;;;;;;;;;;4881545;29;20322;-60
2023/04/13 09:39:26;;;;;;;3.45;0.25;;;;;;;;;;4880760;29;20132;-61
2023/04/13 09:41:56;;;;;;;0.10;0.10;;;;;;;;;;4868499;29;20144;-60
2023/04/13 09:44:26;;;;;;;0.20;0.20;;;;;;;;;;4887278;29;20064;-61
2023/04/13 09:46:59;;;;;;;1.40;0.60;;;;;;;;;;4874955;29;20077;-60
2023/04/13 09:49:37;;;;;;;2.83;0.32;;;;;;;;;;4882949;29;20120;-63
2023/04/13 09:52:06;;;;;;;0.25;0.25;;;;;;;;;;4875253;29;20087;-61
2023/04/13 09:54:34;;;;;;;0.17;0.17;;;;;;;;;;4880458;29;20072;-60
2023/04/13 09:57:03;;;;;;;0.22;0.20;;;;;;;;;;4881926;29;20394;-68
2023/04/13 09:59:32;;;;;;;0.10;0.10;;;;;;;;;;4880496;29;20114;-61
2023/04/13 10:02:02;;;;;;;0.17;0.17;;;;;;;;;;4893624;29;20144;-64
2023/04/13 10:04:35;;;;;;;0.90;0.40;;;;;;;;;;4874986;29;20539;-60
2023/04/13 10:07:04;;;;;;;0.15;0.15;;;;;;;;;;4879261;29;20055;-62
2023/04/13 10:09:32;;;;;;;0.40;0.40;;;;;;;;;;4894491;29;20044;-61
2023/04/13 10:12:02;;;;;;;0.10;0.10;;;;;;;;;;4881921;29;20160;-61
2023/04/13 10:14:33;;;;;;;1.65;0.15;;;;;;;;;;4878618;29;20555;-63
2023/04/13 10:17:08;;;;;;;3.10;0.20;;;;;;;;;;4890565;29;20045;-60
2023/04/13 10:19:36;;;;;;;;;;;;;;;;;;4878555;29;20434;-61
2023/04/13 10:22:06;;;;;;;1.75;0.30;;;;;;;;;;4890568;29;19975;-60
2023/04/13 10:24:36;;;;;;;1.38;0.22;;;;;;;;;;4878550;29;20057;-63
2023/04/13 10:27:11;;;;;;;0.10;0.10;;;;;;;;;;4878184;29;20061;-63
2023/04/13 10:29:39;;;;;;;0.03;0.03;;;;;;;;;;4879403;29;20079;-60
2023/04/13 10:32:08;;;;;;;0.85;0.30;;;;;;;;;;4878290;29;20045;-62
2023/04/13 10:34:37;;;;;;;0.10;0.10;;;;;;;;;;4884575;29;20586;-63
2023/04/13 10:37:18;;;;;;;0.20;0.20;;;;;;;;;;4886468;29;20059;-60
2023/04/13 10:39:46;;;;;;;1.90;0.43;;;;;;;;;;4880816;29;20063;-63
2023/04/13 10:42:15;;;;;;;0.52;0.20;;;;;;;;;;4871112;29;20092;-63
2023/04/13 10:44:46;;;;;;;0.15;0.15;;;;;;;;;;4882423;29;20057;-62
2023/04/13 10:47:14;;;;;;;0.90;0.32;;;;;;;;;;4885082;29;20080;-60
2023/04/13 10:49:44;;;;;;;0.20;0.20;;;;;;;;;;4878225;29;20060;-60
2023/04/13 10:52:14;;;;;;;0.10;0.10;;;;;;;;;;4877957;29;20418;-62
2023/04/13 10:54:43;;;;;;;1.70;0.15;;;;;;;;;;4865321;29;20131;-62
2023/04/13 10:57:13;;;;;;;0.40;0.40;;;;;;;;;;4877730;29;20127;-63
2023/04/13 10:59:42;;;;;;;0.68;0.57;;;;;;;;;;4878120;29;20071;-60
2023/04/13 11:02:25;;;;;;;0.20;0.20;;;;;;;;;;4877488;29;20156;-60
2023/04/13 11:04:53;;;;;;;0.40;0.40;;;;;;;;;;4877495;29;20085;-63
2023/04/13 11:07:25;;;;;;;0.52;0.30;;;;;;;;;;4869060;29;20056;-60
2023/04/13 11:09:57;;;;;;;0.10;0.10;;;;;;;;;;4884965;29;20085;-60
2023/04/13 11:12:30;;;;;;;0.20;0.20;;;;;;;;;;4865937;29;20335;-60
2023/04/13 11:15:00;;;;;;;1.45;0.20;;;;;;;;;;4876715;29;20057;-61
2023/04/13 11:17:28;;;;;;;0.20;0.20;;;;;;;;;;4877098;29;20057;-61
2023/04/13 11:19:58;;;;;;;0.38;0.38;;;;;;;;;;4876842;29;20059;-62
2023/04/13 11:22:28;;;;;;;0.20;0.15;;;;;;;;;;4885740;29;20053;-60
2023/04/13 11:25:07;;;;;;;0.40;0.20;;;;;;;;;;4893148;29;20148;-62
2023/04/13 11:27:37;;;;;;;0.57;0.30;;;;;;;;;;4884688;29;20117;-60
2023/04/13 11:30:08;;;;;;;0.10;0.10;;;;;;;;;;4877170;29;20148;-61
2023/04/13 11:32:38;;;;;;;0.25;0.25;;;;;;;;;;4888890;29;20048;-62
2023/04/13 11:35:08;;;;;;;0.70;0.35;;;;;;;;;;4890112;29;20578;-61
2023/04/13 11:37:38;;;;;;;0.28;0.28;;;;;;;;;;4881612;29;20057;-60
2023/04/13 11:40:13;;;;;;;4.13;0.20;;;;;;;;;;4876062;29;20065;-61
2023/04/13 11:42:43;;;;;;;0.98;0.70;;;;;;;;;;4872981;29;20112;-60
2023/04/13 11:45:11;;;;;;;0.22;0.10;;;;;;;;;;4877490;29;20060;-60
2023/04/13 11:47:40;;;;;;;1.20;0.20;;;;;;;;;;4888736;29;20165;-60
2023/04/13 11:50:09;;;;;;;0.13;0.13;;;;;;;;;;4886515;29;20056;-61
2023/04/13 11:52:40;;;;;;;0.22;0.22;;;;;;;;;;4891412;29;20084;-61
2023/04/13 11:55:09;;;;;;;0.10;0.10;;;;;;;;;;4887999;29;20124;-61
2023/04/13 11:57:51;;;;;;;0.30;0.30;;;;;;;;;;4876418;29;20060;-59
2023/04/13 12:00:22;;;;;;;0.20;0.17;;;;;;;;;;4876562;29;20049;-62
2023/04/13 12:02:52;;;;;;;0.25;0.20;;;;;;;;;;4884261;29;20116;-61
2023/04/13 12:05:30;;;;;;;0.30;0.30;;;;;;;;;;4879456;29;20144;-60
2023/04/13 12:08:02;;;;;;;0.93;0.20;;;;;;;;;;4867732;29;20132;-60
2023/04/13 12:10:34;;;;;;;0.40;0.35;;;;;;;;;;4880416;29;20516;-59
2023/04/13 12:13:14;;;;;;;4.25;0.30;;;;;;;;;;4882807;29;20109;-60
2023/04/13 12:16:00;;;;;;;2.70;0.17;;;;;;;;;;4865531;29;20483;-64
2023/04/13 12:18:31;;;;;;;0.80;0.20;;;;;;;;;;4876335;29;20067;-60
2023/04/13 12:21:05;;;;;;;4.25;0.40;;;;;;;;;;4876120;29;20520;-61
2023/04/13 12:23:35;;;;;;;0.15;0.15;;;;;;;;;;4880204;29;20064;-61
2023/04/13 12:26:04;;;;;;;0.20;0.20;;;;;;;;;;4883696;29;20061;-60
2023/04/13 12:28:37;;;;;;;0.17;0.17;;;;;;;;;;4876153;29;20132;-60
2023/04/13 12:31:06;;;;;;;5.95;0.57;;;;;;;;;;4876332;29;20100;-60
2023/04/13 12:33:35;;;;;;;7.47;0.38;;;;;;;;;;4875092;29;20113;-60
2023/04/13 12:36:05;;;;;;;0.43;0.43;;;;;;;;;;4880149;29;20052;-59
2023/04/13 12:38:33;;;;;;;0.30;0.20;;;;;;;;;;4864149;29;20537;-60
2023/04/13 12:41:03;;;;;;;1.65;0.20;;;;;;;;;;4868251;29;20113;-61
2023/04/13 12:43:32;;;;;;;0.10;0.10;;;;;;;;;;4881043;29;20048;-60
2023/04/13 12:46:00;;;;;;;0.20;0.20;;;;;;;;;;4881339;29;20122;-59
2023/04/13 12:48:29;;;;;;;0.20;0.20;;;;;;;;;;4887054;29;20068;-59
2023/04/13 12:50:58;;;;;;;6.45;0.43;;;;;;;;;;4875825;29;20509;-59
2023/04/13 12:53:26;;;;;;;0.43;0.22;;;;;;;;;;4875348;29;20053;-60
2023/04/13 12:55:54;;;;;;;2.40;0.15;;;;;;;;;;4878020;29;20052;-60
2023/04/13 12:58:24;;;;;;;0.10;0.10;;;;;;;;;;4885484;29;20486;-61
2023/04/13 13:00:52;;;;;;;0.08;0.08;;;;;;;;;;4875304;29;20136;-61
2023/04/13 13:03:22;;;;;;;0.22;0.20;;;;;;;;;;4875819;29;20053;-60
2023/04/13 13:05:50;;;;;;;0.98;0.25;;;;;;;;;;4878370;29;20050;-60
2023/04/13 13:08:19;;;;;;;1.15;0.30;;;;;;;;;;4868548;29;20095;-63
2023/04/13 13:10:47;;;;;;;0.47;0.20;;;;;;;;;;4880983;29;20084;-60
2023/04/13 13:13:16;;;;;;;0.20;0.20;;;;;;;;;;4882131;29;20414;-59
2023/04/13 13:15:45;;;;;;;0.15;0.10;;;;;;;;;;4881542;29;20147;-59
2023/04/13 13:18:14;;;;;;;0.20;0.20;;;;;;;;;;4875379;29;20061;-60
2023/04/13 13:20:43;;;;;;;0.50;0.30;;;;;;;;;;4875169;29;20396;-60
2023/04/13 13:23:11;;;;;;;0.80;0.25;;;;;;;;;;4875065;29;20087;-61
2023/04/13 13:25:42;;;;;;;0.20;0.20;;;;;;;;;;4882281;29;20071;-60
2023/04/13 13:28:30;;;;;;;0.20;0.20;;;;;;;;;;4881755;29;20432;-60
2023/04/13 13:31:00;;;;;;;0.30;0.20;;;;;;;;;;4883255;29;20049;-60
2023/04/13 13:33:28;;;;;;;0.40;0.40;;;;;;;;;;4874112;29;20144;-63
2023/04/13 13:35:57;;;;;;;9.13;0.30;;;;;;;;;;4882528;29;20052;-61
2023/04/13 13:38:26;;;;;;;3.72;0.47;;;;;;;;;;4875162;29;20056;-60
2023/04/13 13:40:54;;;;;;;1.38;0.43;;;;;;;;;;4868693;29;20045;-61
2023/04/13 13:43:23;;;;;;;4.22;0.30;;;;;;;;;;4876072;29;20057;-60
2023/04/13 13:45:51;;;;;;;0.20;0.20;;;;;;;;;;4878310;29;20060;-61
2023/04/13 13:48:22;;;;;;;0.10;0.10;;;;;;;;;;4878739;29;20547;-61
2023/04/13 13:50:51;;;;;;;6.60;0.25;;;;;;;;;;4891588;29;20148;-61
2023/04/13 13:53:19;;;;;;;1.70;0.40;;;;;;;;;;4878823;29;20053;-60
2023/04/13 13:55:48;;;;;;;0.30;0.30;;;;;;;;;;4880982;29;20052;-58
2023/04/13 13:58:17;;;;;;;0.45;0.45;;;;;;;;;;4888606;29;20131;-59
2023/04/13 14:00:45;;;;;;;1.10;0.35;;;;;;;;;;4890728;29;20147;-59
2023/04/13 14:03:15;;;;;;;0.52;0.32;;;;;;;;;;4879131;29;20059;-61
2023/04/13 14:05:45;;;;;;;0.25;0.20;;;;;;;;;;4875237;29;20049;-59
2023/04/13 14:08:14;;;;;;;2.80;0.10;;;;;;;;;;4871204;29;20053;-59
2023/04/13 14:10:47;;;;;;;0.20;0.20;;;;;;;;;;4878778;29;20139;-60
2023/04/13 14:13:15;;;;;;;0.90;0.30;;;;;;;;;;4878568;29;20057;-62
2023/04/13 14:15:44;;;;;;;0.10;0.10;;;;;;;;;;4877963;29;20060;-62
2023/04/13 14:18:12;;;;;;;0.08;0.08;;;;;;;;;;4878479;29;20124;-59
2023/04/13 14:20:42;;;;;;;1.23;0.17;;;;;;;;;;4885654;29;20041;-59
2023/04/13 14:23:12;;;;;;;2.17;0.30;;;;;;;;;;4883155;29;20088;-65
2023/04/13 14:25:40;;;;;;;0.10;0.10;;;;;;;;;;4885747;29;20084;-60
2023/04/13 14:28:10;;;;;;;0.20;0.20;;;;;;;;;;4882339;29;20568;-61
2023/04/13 14:30:39;;;;;;;2.72;0.38;;;;;;;;;;4878318;29;20060;-61
2023/04/13 14:33:08;;;;;;;0.35;0.30;;;;;;;;;;4889371;29;20079;-61
2023/04/13 14:35:37;;;;;;;0.10;0.10;;;;;;;;;;4877780;29;20505;-62
2023/04/13 14:38:07;;;;;;;0.47;0.47;;;;;;;;;;4877937;29;20052;-60
2023/04/13 14:40:36;;;;;;;0.52;0.38;;;;;;;;;;4873623;29;20140;-60
2023/04/13 14:43:05;;;;;;;0.15;0.10;;;;;;;;;;4876520;29;20574;-63
2023/04/13 14:45:34;;;;;;;0.30;0.20;;;;;;;;;;4877490;29;20120;-59
2023/04/13 14:48:02;;;;;;;2.00;0.40;;;;;;;;;;4877889;29;20049;-68
2023/04/13 14:50:31;;;;;;;0.10;0.10;;;;;;;;;;4877877;29;20049;-62
2023/04/13 14:53:02;;;;;;;0.45;0.20;;;;;;;;;;4878298;29;20064;-61
2023/04/13 14:55:30;;;;;;;0.20;0.20;;;;;;;;;;4888472;29;20143;-63
2023/04/13 14:58:02;;;;;;;1.13;0.30;;;;;;;;;;4878087;29;20057;-63
2023/04/13 15:03:16;;;;;;;;;;;;;;;;;;4886668;29;20079;-60